Time;durP1;ratioP1;P1;durP2;ratioP2;P2;SDS_P1;SDS_P2;PMS_P1;PMS_P2;Temp;Humidity;BMP_temperature;BMP_pressure;BME280_temperature;BME280_humidity;BME280_pressure;Samples;Min_cycle;Max_cycle;Signal;HPM_P1;HPM_P2
2023/08/01 00:00:10;;;;;;;9.95;5.75;;;;;;;16.80;100.00;99126.66;5011739;28;20061;-74
2023/08/01 00:02:42;;;;;;;8.65;5.80;;;;;;;16.77;100.00;99112.72;5005038;28;20137;-75
2023/08/01 00:05:11;;;;;;;12.43;6.68;;;;;;;16.82;100.00;99102.44;5010857;28;20046;-77
2023/08/01 00:07:39;;;;;;;9.00;5.72;;;;;;;16.79;100.00;99087.53;4979151;28;20551;-75
2023/08/01 00:10:07;;;;;;;9.80;6.18;;;;;;;16.83;100.00;99082.75;4998640;28;20077;-77
2023/08/01 00:12:37;;;;;;;13.35;6.40;;;;;;;16.81;100.00;99088.22;4984479;28;20042;-75
2023/08/01 00:15:08;;;;;;;12.30;5.80;;;;;;;16.85;100.00;99078.06;4989301;28;20046;-77
2023/08/01 00:17:36;;;;;;;9.65;6.03;;;;;;;16.83;100.00;99080.06;4988138;28;20488;-76
2023/08/01 00:20:08;;;;;;;10.05;6.22;;;;;;;16.83;100.00;99058.69;5006101;28;20042;-75
2023/08/01 00:22:39;;;;;;;10.23;6.32;;;;;;;16.84;100.00;99055.84;4998785;28;20049;-75
2023/08/01 00:25:07;;;;;;;10.32;6.05;;;;;;;16.82;100.00;99047.16;5001499;28;20058;-75
2023/08/01 00:27:35;;;;;;;11.75;6.35;;;;;;;16.82;100.00;99043.63;5005177;28;20157;-77
2023/08/01 00:30:08;;;;;;;11.85;6.53;;;;;;;16.83;100.00;99032.78;5026427;28;20057;-76
2023/08/01 00:32:37;;;;;;;11.10;6.33;;;;;;;16.82;100.00;99025.75;5009560;28;20050;-75
2023/08/01 00:35:07;;;;;;;10.20;6.07;;;;;;;16.82;100.00;99016.91;4987340;28;20487;-75
2023/08/01 00:37:38;;;;;;;9.25;6.35;;;;;;;16.82;100.00;99019.56;4970927;28;20458;-76
2023/08/01 00:40:11;;;;;;;10.43;6.00;;;;;;;16.78;100.00;99002.13;5002629;28;20414;-76
2023/08/01 00:42:39;;;;;;;14.30;6.57;;;;;;;16.75;100.00;98997.06;5001731;28;20052;-76
2023/08/01 00:45:08;;;;;;;10.15;6.43;;;;;;;16.75;100.00;98991.72;4989274;28;20112;-75
2023/08/01 00:47:39;;;;;;;13.23;7.00;;;;;;;16.76;100.00;98982.72;4979855;28;20050;-76
2023/08/01 00:50:13;;;;;;;11.38;6.68;;;;;;;16.76;100.00;98975.53;4987243;28;20140;-75
2023/08/01 00:52:41;;;;;;;11.95;7.10;;;;;;;16.78;100.00;98962.88;5012118;28;20037;-74
2023/08/01 00:55:13;;;;;;;11.68;7.25;;;;;;;16.77;100.00;98974.56;4983549;28;20046;-76
2023/08/01 00:57:41;;;;;;;14.65;6.82;;;;;;;16.76;100.00;98972.84;4966359;28;20045;-75
2023/08/01 01:00:10;;;;;;;12.63;6.78;;;;;;;16.75;100.00;98971.19;4973674;28;20053;-75
2023/08/01 01:02:40;;;;;;;14.50;7.28;;;;;;;16.75;100.00;98970.31;4993406;28;20426;-76
2023/08/01 01:05:10;;;;;;;10.68;7.20;;;;;;;16.81;100.00;98967.94;4969771;28;20038;-75
2023/08/01 01:07:40;;;;;;;11.20;6.47;;;;;;;16.78;100.00;98970.88;4975590;28;20047;-77
2023/08/01 01:10:08;;;;;;;11.23;6.73;;;;;;;16.80;100.00;98970.75;5005484;28;20037;-76
2023/08/01 01:12:39;;;;;;;10.35;6.45;;;;;;;16.89;100.00;98950.28;5021773;28;20065;-76
2023/08/01 01:15:10;;;;;;;10.68;6.53;;;;;;;16.86;100.00;98939.88;5002445;28;20109;-78
2023/08/01 01:17:38;;;;;;;13.07;7.00;;;;;;;16.80;100.00;98954.72;4997980;28;20046;-75
2023/08/01 01:20:06;;;;;;;12.95;7.20;;;;;;;16.80;100.00;98946.69;4991160;28;20041;-75
2023/08/01 01:22:37;;;;;;;14.20;7.60;;;;;;;16.78;100.00;98940.63;4993313;28;20046;-75
2023/08/01 01:25:08;;;;;;;13.30;6.68;;;;;;;16.67;100.00;98933.66;5021833;28;20090;-79
2023/08/01 01:27:40;;;;;;;9.18;6.45;;;;;;;16.67;100.00;98935.47;5000206;28;20046;-76
2023/08/01 01:30:10;;;;;;;13.15;6.85;;;;;;;16.70;100.00;98908.44;4999248;28;20050;-75
2023/08/01 01:32:41;;;;;;;11.25;6.90;;;;;;;16.77;100.00;98914.91;4993516;28;20125;-76
2023/08/01 01:35:09;;;;;;;11.02;6.72;;;;;;;16.79;100.00;98915.59;4987311;28;20049;-76
2023/08/01 01:37:41;;;;;;;12.90;7.03;;;;;;;16.70;100.00;98913.78;4968814;28;20392;-76
2023/08/01 01:40:10;;;;;;;12.00;7.03;;;;;;;16.72;100.00;98909.13;5014680;28;20066;-76
2023/08/01 01:42:39;;;;;;;12.55;7.03;;;;;;;16.74;100.00;98915.19;4991579;28;20061;-76
2023/08/01 01:45:07;;;;;;;11.38;6.72;;;;;;;16.74;100.00;98902.66;5006080;28;20049;-76
2023/08/01 01:47:37;;;;;;;10.80;6.75;;;;;;;16.76;100.00;98889.16;4979411;28;20060;-77
2023/08/01 01:50:08;;;;;;;12.82;7.13;;;;;;;16.78;100.00;98898.72;4980882;28;20073;-75
2023/08/01 01:52:39;;;;;;;11.70;7.20;;;;;;;16.80;100.00;98898.56;5005370;28;20129;-76
2023/08/01 01:55:08;;;;;;;13.93;6.87;;;;;;;16.81;100.00;98886.88;4998548;28;20046;-75
2023/08/01 01:57:40;;;;;;;13.93;7.97;;;;;;;16.83;100.00;98866.19;4977617;28;20129;-76
2023/08/01 02:00:10;;;;;;;15.18;8.07;;;;;;;16.81;100.00;98868.16;5001488;28;20108;-76
2023/08/01 02:02:41;;;;;;;12.85;8.00;;;;;;;16.82;100.00;98873.38;5007695;28;20050;-76
2023/08/01 02:05:12;;;;;;;13.82;8.25;;;;;;;16.81;100.00;98881.53;5018903;28;20414;-76
2023/08/01 02:07:42;;;;;;;16.50;9.52;;;;;;;16.79;100.00;98880.84;4978507;28;20071;-76
2023/08/01 02:10:11;;;;;;;17.27;8.73;;;;;;;16.79;100.00;98872.81;4985375;28;20145;-76
2023/08/01 02:12:39;;;;;;;18.33;8.65;;;;;;;16.79;100.00;98868.31;5005527;28;20501;-77
2023/08/01 02:15:07;;;;;;;17.52;9.48;;;;;;;16.81;100.00;98858.31;4988905;28;20062;-78
2023/08/01 02:17:35;;;;;;;17.38;9.40;;;;;;;16.80;100.00;98848.63;4979558;28;20592;-77
2023/08/01 02:20:05;;;;;;;18.48;8.68;;;;;;;16.84;100.00;98854.50;5007832;28;20050;-76
2023/08/01 02:22:34;;;;;;;16.20;8.97;;;;;;;16.84;100.00;98843.81;5002153;28;20050;-76
2023/08/01 02:25:03;;;;;;;16.20;8.60;;;;;;;16.83;100.00;98839.47;4966704;28;20078;-76
2023/08/01 02:27:32;;;;;;;14.07;8.00;;;;;;;16.84;100.00;98831.25;4972590;28;20085;-76
2023/08/01 02:29:59;;;;;;;13.70;7.97;;;;;;;16.83;100.00;98818.06;4984554;28;20042;-76
2023/08/01 02:32:28;;;;;;;13.88;7.32;;;;;;;16.89;100.00;98800.56;5007026;28;20501;-77
2023/08/01 02:35:01;;;;;;;14.07;7.68;;;;;;;16.84;100.00;98795.69;4985166;28;20046;-76
2023/08/01 02:37:30;;;;;;;14.73;7.53;;;;;;;16.83;100.00;98797.53;4976560;28;20070;-77
2023/08/01 02:39:57;;;;;;;14.57;7.85;;;;;;;16.83;100.00;98796.69;5001490;28;20054;-76
2023/08/01 02:42:27;;;;;;;17.40;7.80;;;;;;;16.84;100.00;98814.41;5005624;28;20045;-76
2023/08/01 02:44:56;;;;;;;20.58;8.50;;;;;;;16.84;100.00;98798.38;4990356;28;20054;-76
2023/08/01 02:47:23;;;;;;;16.67;7.47;;;;;;;16.83;100.00;98799.34;4973001;28;20074;-76
2023/08/01 02:49:51;;;;;;;14.50;7.95;;;;;;;16.79;100.00;98787.28;4984865;28;20223;-80
2023/08/01 02:52:19;;;;;;;16.08;7.95;;;;;;;16.85;100.00;98792.00;5022855;28;20046;-74
2023/08/01 02:54:47;;;;;;;14.70;7.35;;;;;;;16.88;100.00;98797.06;5006861;28;20509;-76
2023/08/01 02:57:15;;;;;;;14.13;7.60;;;;;;;16.86;100.00;98798.19;4997179;28;20053;-79
2023/08/01 02:59:46;;;;;;;15.60;8.05;;;;;;;16.87;100.00;98787.34;5019325;28;20046;-76
2023/08/01 03:02:14;;;;;;;15.50;8.00;;;;;;;16.84;100.00;98769.78;4994898;28;20042;-77
2023/08/01 03:04:42;;;;;;;13.25;7.88;;;;;;;16.89;100.00;98776.50;4993756;28;20049;-75
2023/08/01 03:07:14;;;;;;;14.05;7.32;;;;;;;16.88;100.00;98774.81;4975382;28;20781;-76
2023/08/01 03:09:44;;;;;;;13.15;7.75;;;;;;;16.90;100.00;98776.34;4997842;28;20050;-77
2023/08/01 03:12:14;;;;;;;12.85;7.00;;;;;;;16.95;100.00;98775.91;5006649;28;20053;-77
2023/08/01 03:14:47;;;;;;;12.73;7.22;;;;;;;16.90;100.00;98771.00;4993852;28;20075;-76
2023/08/01 03:17:17;;;;;;;13.05;7.00;;;;;;;16.90;100.00;98767.50;5000876;28;20046;-76
2023/08/01 03:19:44;;;;;;;14.50;7.07;;;;;;;16.87;100.00;98782.00;5015904;28;20052;-77
2023/08/01 03:22:14;;;;;;;12.38;7.00;;;;;;;16.86;100.00;98783.00;4997664;28;20046;-76
2023/08/01 03:24:42;;;;;;;15.52;7.40;;;;;;;16.83;100.00;98778.81;4987781;28;20042;-77
2023/08/01 03:27:10;;;;;;;15.88;7.22;;;;;;;16.84;100.00;98777.78;5003973;28;20054;-77
2023/08/01 03:29:41;;;;;;;13.82;7.15;;;;;;;16.89;100.00;98776.50;4968282;28;20042;-77
2023/08/01 03:32:10;;;;;;;12.30;6.45;;;;;;;16.88;100.00;98778.34;5010307;28;20096;-76
2023/08/01 03:34:39;;;;;;;13.55;6.75;;;;;;;16.91;100.00;98777.19;4983988;28;20483;-77
2023/08/01 03:37:07;;;;;;;13.73;6.78;;;;;;;16.91;100.00;98783.38;5014183;28;20101;-78
2023/08/01 03:39:36;;;;;;;12.35;6.57;;;;;;;16.92;100.00;98795.78;5011014;28;20053;-78
2023/08/01 03:42:06;;;;;;;12.20;6.82;;;;;;;16.97;100.00;98788.16;4997732;28;20051;-77
2023/08/01 03:44:34;;;;;;;13.23;6.53;;;;;;;16.94;100.00;98782.25;4980790;28;20069;-75
2023/08/01 03:47:02;;;;;;;14.38;6.18;;;;;;;16.90;100.00;98771.00;4988213;28;20050;-78
2023/08/01 03:49:31;;;;;;;13.45;6.38;;;;;;;16.90;100.00;98752.28;5005923;28;20561;-74
2023/08/01 03:51:59;;;;;;;11.25;6.40;;;;;;;16.93;100.00;98753.84;4994664;28;20049;-74
2023/08/01 03:54:27;;;;;;;14.63;7.80;;;;;;;16.95;100.00;98757.19;4979713;28;20053;-73
2023/08/01 03:56:55;;;;;;;13.88;6.30;;;;;;;16.96;100.00;98748.19;4999610;28;20543;-74
2023/08/01 03:59:26;;;;;;;11.80;5.80;;;;;;;16.97;100.00;98745.38;4994801;28;20041;-75
2023/08/01 04:01:54;;;;;;;8.57;5.32;;;;;;;16.95;100.00;98739.31;4993485;28;20046;-74
2023/08/01 04:04:23;;;;;;;13.50;6.10;;;;;;;16.94;100.00;98729.63;5007873;28;20502;-74
2023/08/01 04:06:52;;;;;;;11.45;5.85;;;;;;;16.93;100.00;98740.47;4987659;28;20050;-75
2023/08/01 04:09:20;;;;;;;11.52;6.18;;;;;;;16.92;100.00;98741.44;4984577;28;20071;-74
2023/08/01 04:11:47;;;;;;;11.45;5.55;;;;;;;16.92;100.00;98739.63;4987856;28;20050;-74
2023/08/01 04:14:15;;;;;;;14.05;6.50;;;;;;;16.87;100.00;98738.38;4973110;28;20051;-74
2023/08/01 04:16:44;;;;;;;13.95;6.22;;;;;;;16.90;100.00;98728.22;4984212;28;20047;-75
2023/08/01 04:19:18;;;;;;;12.30;6.60;;;;;;;16.91;100.00;98731.75;4972533;28;20076;-74
2023/08/01 04:21:45;;;;;;;15.05;6.53;;;;;;;16.91;100.00;98721.06;4991835;28;20521;-76
2023/08/01 04:24:15;;;;;;;11.20;6.10;;;;;;;16.97;100.00;98740.00;5004306;28;20064;-74
2023/08/01 04:26:43;;;;;;;12.55;6.40;;;;;;;16.86;100.00;98726.84;4994217;28;20042;-75
2023/08/01 04:29:15;;;;;;;13.38;6.13;;;;;;;16.88;100.00;98732.03;4979690;28;20074;-75
2023/08/01 04:31:43;;;;;;;12.95;6.30;;;;;;;16.92;100.00;98763.69;5006037;28;20050;-75
2023/08/01 04:34:11;;;;;;;11.70;6.50;;;;;;;16.94;100.00;98745.66;5005458;28;20054;-74
2023/08/01 04:36:39;;;;;;;12.02;6.18;;;;;;;16.94;100.00;98716.25;5014387;28;20057;-74
2023/08/01 04:39:07;;;;;;;12.52;6.00;;;;;;;16.96;100.00;98735.66;4989514;28;20050;-77
2023/08/01 04:41:37;;;;;;;12.43;6.18;;;;;;;16.95;100.00;98741.16;5005471;28;20525;-73
2023/08/01 04:44:06;;;;;;;10.25;6.32;;;;;;;16.86;100.00;98734.88;4984556;28;20136;-74
2023/08/01 04:46:42;;;;;;;10.23;6.38;;;;;;;16.89;100.00;98769.31;5019669;28;20084;-74
2023/08/01 04:49:11;;;;;;;12.80;6.93;;;;;;;16.90;100.00;98751.44;4973544;28;20069;-75
2023/08/01 04:51:39;;;;;;;11.05;5.93;;;;;;;16.92;100.00;98755.66;4972196;28;20100;-75
2023/08/01 04:54:07;;;;;;;7.40;4.80;;;;;;;16.91;100.00;98748.63;5004976;28;20405;-75
2023/08/01 04:56:36;;;;;;;12.48;5.43;;;;;;;16.91;100.00;98729.91;5000949;28;20104;-75
2023/08/01 04:59:05;;;;;;;10.98;5.68;;;;;;;16.93;100.00;98733.28;4990598;28;20042;-76
2023/08/01 05:01:34;;;;;;;12.05;6.07;;;;;;;16.96;100.00;98741.00;5012144;28;20045;-75
2023/08/01 05:04:02;;;;;;;12.68;5.60;;;;;;;16.98;100.00;98722.97;5019431;28;20055;-74
2023/08/01 05:06:30;;;;;;;12.02;6.05;;;;;;;16.94;100.00;98708.22;5007350;28;20040;-72
2023/08/01 05:08:58;;;;;;;10.13;5.50;;;;;;;16.93;100.00;98709.22;4977538;28;20092;-76
2023/08/01 05:11:26;;;;;;;10.48;5.70;;;;;;;16.98;100.00;98709.59;4991471;28;20030;-75
2023/08/01 05:13:55;;;;;;;11.32;6.15;;;;;;;16.97;100.00;98693.72;5007655;28;20045;-77
2023/08/01 05:16:23;;;;;;;11.52;5.53;;;;;;;16.97;100.00;98691.03;5013433;28;20066;-74
2023/08/01 05:18:51;;;;;;;11.23;5.53;;;;;;;16.99;100.00;98702.44;4998317;28;20089;-75
2023/08/01 05:21:19;;;;;;;10.10;5.80;;;;;;;16.95;100.00;98691.19;5010485;28;20056;-74
2023/08/01 05:23:47;;;;;;;10.27;5.78;;;;;;;16.94;100.00;98697.53;4995706;28;20050;-74
2023/08/01 05:26:15;;;;;;;12.55;6.20;;;;;;;16.94;100.00;98710.06;5007212;28;20058;-75
2023/08/01 05:28:43;;;;;;;9.90;5.25;;;;;;;16.97;100.00;98718.63;4998508;28;20109;-73
2023/08/01 05:31:13;;;;;;;9.80;6.05;;;;;;;16.97;100.00;98715.09;4986557;28;20061;-74
2023/08/01 05:33:41;;;;;;;10.30;5.68;;;;;;;16.91;100.00;98716.53;5008369;28;20141;-74
2023/08/01 05:36:09;;;;;;;12.20;5.63;;;;;;;16.88;100.00;98702.63;4992648;28;20081;-75
2023/08/01 05:38:37;;;;;;;8.65;5.00;;;;;;;16.92;100.00;98680.81;4975686;28;20098;-74
2023/08/01 05:41:05;;;;;;;10.50;4.72;;;;;;;16.89;100.00;98673.06;4993538;28;20042;-74
2023/08/01 05:43:33;;;;;;;9.15;5.00;;;;;;;16.91;100.00;98692.50;4980282;28;20694;-74
2023/08/01 05:46:01;;;;;;;7.82;4.88;;;;;;;16.82;100.00;98698.75;4997061;28;20596;-74
2023/08/01 05:48:30;;;;;;;8.50;4.97;;;;;;;16.80;100.00;98717.63;4962700;28;20562;-73
2023/08/01 05:50:59;;;;;;;7.50;4.45;;;;;;;16.83;100.00;98700.44;4996150;28;20058;-76
2023/08/01 05:53:28;;;;;;;8.30;4.88;;;;;;;16.84;100.00;98686.09;4999430;28;20050;-75
2023/08/01 05:55:56;;;;;;;9.80;5.50;;;;;;;16.84;100.00;98654.81;5010752;28;20054;-75
2023/08/01 05:58:25;;;;;;;8.75;4.68;;;;;;;16.82;100.00;98656.00;4995001;28;20622;-75
2023/08/01 06:00:58;;;;;;;9.93;4.97;;;;;;;16.76;100.00;98669.97;4991234;28;20086;-77
2023/08/01 06:03:35;;;;;;;7.55;4.60;;;;;;;16.65;100.00;98675.53;5009279;28;20050;-74
2023/08/01 06:06:04;;;;;;;9.25;5.10;;;;;;;16.59;100.00;98701.00;5000324;28;20046;-77
2023/08/01 06:08:32;;;;;;;7.00;4.57;;;;;;;16.54;100.00;98700.59;5013664;28;20055;-74
2023/08/01 06:11:00;;;;;;;9.30;4.85;;;;;;;16.59;100.00;98702.81;4984906;28;20053;-76
2023/08/01 06:13:29;;;;;;;7.82;4.78;;;;;;;16.59;100.00;98708.16;5005923;28;20119;-76
2023/08/01 06:15:58;;;;;;;7.85;4.47;;;;;;;16.55;100.00;98712.13;5003119;28;20078;-76
2023/08/01 06:18:27;;;;;;;5.97;4.35;;;;;;;16.54;100.00;98713.13;4974673;28;20046;-75
2023/08/01 06:20:57;;;;;;;9.75;4.88;;;;;;;16.52;100.00;98718.63;4978523;28;22499;-75
2023/08/01 06:23:24;;;;;;;9.20;5.28;;;;;;;16.44;100.00;98714.03;4993594;28;20039;-76
2023/08/01 06:25:53;;;;;;;7.88;5.20;;;;;;;16.47;100.00;98742.28;4999471;28;20042;-76
2023/08/01 06:28:20;;;;;;;13.27;6.85;;;;;;;16.45;100.00;98761.13;4986671;28;20656;-76
2023/08/01 06:30:48;;;;;;;9.57;5.80;;;;;;;16.52;100.00;98781.94;4975577;28;20050;-75
2023/08/01 06:33:17;;;;;;;10.57;5.90;;;;;;;16.44;100.00;98796.84;5000104;28;20046;-76
2023/08/01 06:35:45;;;;;;;9.98;5.72;;;;;;;16.47;100.00;98782.34;4991682;28;20049;-74
2023/08/01 06:38:17;;;;;;;10.27;5.22;;;;;;;16.46;100.00;98791.38;5003308;28;20053;-75
2023/08/01 06:40:45;;;;;;;6.25;4.15;;;;;;;16.38;100.00;98793.91;5002027;28;20046;-73
2023/08/01 06:43:13;;;;;;;5.20;2.90;;;;;;;16.32;100.00;98810.56;4987382;28;20042;-76
2023/08/01 06:45:42;;;;;;;3.50;2.25;;;;;;;16.20;100.00;98815.25;4998769;28;20065;-74
2023/08/01 06:48:10;;;;;;;4.45;1.70;;;;;;;16.16;100.00;98824.53;5004202;28;20057;-75
2023/08/01 06:50:39;;;;;;;4.22;1.58;;;;;;;16.18;100.00;98827.91;4992995;28;20034;-74
2023/08/01 06:53:08;;;;;;;1.80;1.33;;;;;;;16.18;100.00;98827.06;4990841;28;20085;-74
2023/08/01 06:55:38;;;;;;;2.88;1.50;;;;;;;16.19;100.00;98834.91;5007809;28;20060;-74
2023/08/01 06:58:07;;;;;;;2.63;1.10;;;;;;;16.21;100.00;98827.59;4970211;28;20050;-73
2023/08/01 07:00:37;;;;;;;2.92;1.25;;;;;;;16.25;100.00;98834.31;4992557;28;20042;-73
2023/08/01 07:03:06;;;;;;;2.72;1.70;;;;;;;16.25;100.00;98836.16;5002516;28;20042;-74
2023/08/01 07:05:34;;;;;;;2.80;1.58;;;;;;;16.25;100.00;98837.00;4991056;28;20041;-74
2023/08/01 07:08:05;;;;;;;4.15;2.17;;;;;;;16.14;100.00;98840.69;5005222;28;20046;-74
2023/08/01 07:10:35;;;;;;;3.17;2.08;;;;;;;16.17;100.00;98847.56;4975385;28;20042;-74
2023/08/01 07:13:05;;;;;;;2.27;2.07;;;;;;;16.16;100.00;98845.03;4989976;28;20063;-75
2023/08/01 07:15:35;;;;;;;3.95;2.63;;;;;;;16.03;100.00;98838.19;4990836;28;20484;-73
2023/08/01 07:18:03;;;;;;;3.10;2.50;;;;;;;15.97;100.00;98840.59;5006221;28;20057;-74
2023/08/01 07:20:31;;;;;;;4.53;2.72;;;;;;;15.99;100.00;98844.81;4985854;28;20473;-74
2023/08/01 07:23:01;;;;;;;3.47;2.60;;;;;;;16.08;100.00;98843.09;5002484;28;20038;-76
2023/08/01 07:25:29;;;;;;;3.40;3.00;;;;;;;16.08;100.00;98843.09;5005345;28;20066;-74
2023/08/01 07:27:56;;;;;;;5.13;3.03;;;;;;;16.18;100.00;98848.41;5017693;28;20054;-74
2023/08/01 07:30:25;;;;;;;5.88;2.67;;;;;;;16.27;100.00;98853.72;4964281;28;20116;-74
2023/08/01 07:32:53;;;;;;;4.15;2.78;;;;;;;16.22;100.00;98839.94;5001626;28;20375;-74
2023/08/01 07:35:25;;;;;;;5.18;3.33;;;;;;;16.40;100.00;98854.22;4987878;28;20414;-76
2023/08/01 07:37:53;;;;;;;5.32;3.58;;;;;;;16.54;100.00;98844.03;4976426;28;20042;-74
2023/08/01 07:40:22;;;;;;;9.40;3.53;;;;;;;16.55;100.00;98851.06;4997744;28;20058;-74
2023/08/01 07:42:51;;;;;;;9.57;3.30;;;;;;;16.51;100.00;98857.72;5003423;28;20567;-74
2023/08/01 07:45:21;;;;;;;5.28;3.50;;;;;;;16.58;100.00;98856.13;4987575;28;20129;-73
2023/08/01 07:47:51;;;;;;;4.82;2.88;;;;;;;16.53;100.00;98853.09;5020980;28;20533;-76
2023/08/01 07:50:19;;;;;;;5.70;2.60;;;;;;;16.42;100.00;98857.59;4973799;28;20051;-74
2023/08/01 07:52:48;;;;;;;5.55;2.90;;;;;;;16.28;100.00;98855.41;4994259;28;20034;-74
2023/08/01 07:55:16;;;;;;;5.93;2.90;;;;;;;16.25;100.00;98866.38;4987512;28;20170;-74
2023/08/01 07:57:44;;;;;;;4.72;2.97;;;;;;;16.10;100.00;98854.47;4988898;28;20050;-74
2023/08/01 08:00:12;;;;;;;4.53;3.30;;;;;;;16.38;100.00;98877.56;4988889;28;20050;-73
2023/08/01 08:02:44;;;;;;;4.10;3.70;;;;;;;17.01;100.00;98877.75;4989042;28;20046;-74
2023/08/01 08:05:15;;;;;;;4.43;3.30;;;;;;;17.40;100.00;98881.03;4987355;28;20085;-74
2023/08/01 08:07:43;;;;;;;3.03;2.55;;;;;;;17.55;100.00;98884.00;4986124;28;20069;-74
2023/08/01 08:10:14;;;;;;;3.78;2.55;;;;;;;18.08;100.00;98885.84;4972836;28;20049;-71
2023/08/01 08:12:50;;;;;;;3.22;2.28;;;;;;;18.39;100.00;98892.44;5006036;28;20042;-73
2023/08/01 08:15:19;;;;;;;4.28;2.38;;;;;;;18.56;100.00;98891.53;5004981;28;20572;-74
2023/08/01 08:17:48;;;;;;;4.43;2.20;;;;;;;18.73;100.00;98897.81;5003971;28;20045;-73
2023/08/01 08:20:17;;;;;;;3.22;1.70;;;;;;;18.51;100.00;98898.34;4991072;28;20037;-74
2023/08/01 08:22:45;;;;;;;3.50;1.92;;;;;;;18.48;100.00;98888.78;5003429;28;20054;-75
2023/08/01 08:25:13;;;;;;;4.43;2.38;;;;;;;18.57;100.00;98892.38;5019574;28;20047;-74
2023/08/01 08:27:41;;;;;;;2.50;1.90;;;;;;;18.71;100.00;98894.50;4989088;28;20052;-73
2023/08/01 08:30:10;;;;;;;4.22;1.70;;;;;;;18.51;100.00;98899.19;4999164;28;20077;-73
2023/08/01 08:32:38;;;;;;;3.67;1.80;;;;;;;18.63;100.00;98904.31;5007517;28;20042;-73
2023/08/01 08:35:06;;;;;;;2.85;1.83;;;;;;;18.69;100.00;98901.00;5005390;28;20053;-74
2023/08/01 08:37:37;;;;;;;4.38;1.80;;;;;;;18.56;100.00;98902.25;5005210;28;20056;-74
2023/08/01 08:40:05;;;;;;;2.97;1.80;;;;;;;18.41;100.00;98922.59;5008664;28;20053;-74
2023/08/01 08:42:36;;;;;;;1.77;1.60;;;;;;;18.12;100.00;98909.47;4999246;28;20517;-73
2023/08/01 08:45:07;;;;;;;4.70;1.90;;;;;;;18.04;100.00;98908.56;4966150;28;20060;-73
2023/08/01 08:47:39;;;;;;;3.78;1.70;;;;;;;18.01;100.00;98922.28;4991970;28;20046;-73
2023/08/01 08:50:10;;;;;;;3.35;1.70;;;;;;;17.98;100.00;98917.22;4981055;28;20080;-73
2023/08/01 08:52:40;;;;;;;4.80;1.98;;;;;;;18.15;100.00;98929.75;4993930;28;20052;-73
2023/08/01 08:55:08;;;;;;;2.45;1.60;;;;;;;18.23;100.00;98921.78;5011213;28;20138;-74
2023/08/01 08:57:36;;;;;;;3.30;1.45;;;;;;;18.36;100.00;98930.25;4973293;28;20112;-74
2023/08/01 09:00:06;;;;;;;3.08;1.80;;;;;;;18.67;100.00;98919.09;4993126;28;20502;-73
2023/08/01 09:02:34;;;;;;;2.25;1.45;;;;;;;18.81;100.00;98921.16;4995689;28;20037;-73
2023/08/01 09:05:03;;;;;;;3.78;1.48;;;;;;;18.80;100.00;98916.81;5001551;28;20050;-73
2023/08/01 09:07:36;;;;;;;8.00;1.60;;;;;;;18.76;100.00;98923.47;5001591;28;20054;-73
2023/08/01 09:10:07;;;;;;;2.70;1.27;;;;;;;18.74;100.00;98915.59;4973087;28;20046;-73
2023/08/01 09:12:35;;;;;;;4.45;1.10;;;;;;;18.63;100.00;98917.72;4994722;28;20485;-74
2023/08/01 09:15:03;;;;;;;1.40;1.30;;;;;;;18.53;100.00;98925.84;4982986;28;20419;-74
2023/08/01 09:17:31;;;;;;;4.00;1.90;;;;;;;18.67;100.00;98925.28;4974992;28;20081;-74
2023/08/01 09:20:05;;;;;;;3.25;1.52;;;;;;;18.80;100.00;98914.97;4988206;28;20081;-74
2023/08/01 09:22:42;;;;;;;2.10;1.20;;;;;;;18.73;100.00;98915.78;4994366;28;20041;-73
2023/08/01 09:25:12;;;;;;;4.40;1.60;;;;;;;18.54;100.00;98911.44;4990521;28;20065;-74
2023/08/01 09:27:41;;;;;;;2.28;1.50;;;;;;;18.50;100.00;98916.28;4997596;28;20501;-74
2023/08/01 09:30:13;;;;;;;2.38;1.20;;;;;;;18.53;100.00;98917.81;4986759;28;20130;-75
2023/08/01 09:32:43;;;;;;;2.10;1.10;;;;;;;18.83;100.00;98922.69;4986953;28;20050;-74
2023/08/01 09:35:12;;;;;;;2.38;1.20;;;;;;;19.06;100.00;98909.53;4985202;28;20073;-74
2023/08/01 09:37:41;;;;;;;2.65;1.40;;;;;;;19.05;100.00;98917.75;4984047;28;20398;-76
2023/08/01 09:40:12;;;;;;;1.30;1.20;;;;;;;19.17;100.00;98909.25;4981965;28;20042;-76
2023/08/01 09:42:41;;;;;;;3.65;1.30;;;;;;;19.24;100.00;98917.47;4993265;28;20042;-76
2023/08/01 09:45:14;;;;;;;1.67;1.00;;;;;;;19.18;100.00;98913.63;5007535;28;20034;-76
2023/08/01 09:47:44;;;;;;;6.00;1.48;;;;;;;19.35;100.00;98913.69;5004221;28;20042;-76
2023/08/01 09:50:21;;;;;;;2.65;1.30;;;;;;;19.42;100.00;98925.44;4975861;28;20054;-75
2023/08/01 09:52:53;;;;;;;3.15;1.60;;;;;;;19.56;100.00;98917.59;4994324;28;20045;-76
2023/08/01 09:55:33;;;;;;;4.35;1.33;;;;;;;19.51;100.00;98919.13;4993761;28;20050;-76
2023/08/01 09:58:02;;;;;;;5.47;1.58;;;;;;;19.23;100.00;98915.81;4985438;28;20056;-77
2023/08/01 10:00:31;;;;;;;1.88;1.42;;;;;;;18.92;100.00;98920.88;4969639;28;20185;-77
2023/08/01 10:03:02;;;;;;;1.95;1.40;;;;;;;18.87;100.00;98904.44;4995137;28;20048;-75
2023/08/01 10:05:31;;;;;;;2.45;1.50;;;;;;;19.12;100.00;98902.69;4990622;28;20056;-75
2023/08/01 10:08:03;;;;;;;1.63;1.20;;;;;;;19.25;100.00;98921.84;4991304;28;20038;-76
2023/08/01 10:10:33;;;;;;;3.20;1.70;;;;;;;19.32;100.00;98920.22;4992991;28;20586;-77
2023/08/01 10:13:02;;;;;;;2.65;1.52;;;;;;;19.38;100.00;98913.31;4996165;28;20078;-75
2023/08/01 10:15:30;;;;;;;2.25;1.58;;;;;;;19.39;100.00;98923.06;4989684;28;20544;-75
2023/08/01 10:17:58;;;;;;;1.92;1.48;;;;;;;19.37;100.00;98927.75;5009856;28;20110;-75
2023/08/01 10:20:28;;;;;;;4.65;1.10;;;;;;;19.17;100.00;98935.25;4992191;28;20047;-76
2023/08/01 10:22:57;;;;;;;4.25;1.70;;;;;;;18.82;100.00;98917.50;5000930;28;21846;-75
2023/08/01 10:25:26;;;;;;;2.20;1.35;;;;;;;19.00;100.00;98937.03;4993618;28;20038;-75
2023/08/01 10:28:00;;;;;;;2.22;1.60;;;;;;;19.27;100.00;98915.31;5012618;28;20519;-77
2023/08/01 10:30:29;;;;;;;1.77;1.27;;;;;;;19.62;100.00;98932.22;4986115;28;20414;-77
2023/08/01 10:32:58;;;;;;;3.05;1.42;;;;;;;19.75;100.00;98926.38;4997459;28;20065;-76
2023/08/01 10:35:36;;;;;;;3.30;1.55;;;;;;;19.89;100.00;98931.09;4980478;28;20101;-75
2023/08/01 10:38:07;;;;;;;2.58;1.35;;;;;;;20.07;100.00;98930.94;4999528;28;20554;-75
2023/08/01 10:40:36;;;;;;;2.17;1.50;;;;;;;20.15;100.00;98923.69;4989374;28;20258;-75
2023/08/01 10:43:06;;;;;;;3.17;1.33;;;;;;;20.39;100.00;98939.00;5005087;28;20042;-76
2023/08/01 10:45:34;;;;;;;1.60;1.20;;;;;;;20.67;100.00;98937.59;4995225;28;20498;-76
2023/08/01 10:48:09;;;;;;;2.13;1.40;;;;;;;20.37;97.91;98932.13;5002483;28;20434;-75
2023/08/01 10:50:39;;;;;;;2.22;1.30;;;;;;;20.26;99.92;98938.66;4982539;28;20157;-76
2023/08/01 10:53:09;;;;;;;2.95;1.30;;;;;;;20.23;100.00;98941.69;4988198;28;20046;-75
2023/08/01 10:55:41;;;;;;;2.45;1.52;;;;;;;20.02;100.00;98946.69;5000449;28;20042;-75
2023/08/01 10:58:11;;;;;;;;;;;;;;;19.82;100.00;98952.41;5016727;28;20038;-75
2023/08/01 11:00:39;;;;;;;2.10;1.50;;;;;;;19.70;100.00;98948.34;4994163;28;20338;-76
2023/08/01 11:03:08;;;;;;;3.10;1.35;;;;;;;19.87;100.00;98951.88;5002809;28;20473;-76
2023/08/01 11:05:36;;;;;;;2.83;1.33;;;;;;;20.06;100.00;98962.31;4999566;28;20072;-76
2023/08/01 11:08:06;;;;;;;3.00;1.50;;;;;;;19.96;100.00;98973.25;4990225;28;20508;-76
2023/08/01 11:10:34;;;;;;;3.42;1.30;;;;;;;19.75;100.00;98961.28;5006074;28;20465;-75
2023/08/01 11:13:04;;;;;;;4.95;1.75;;;;;;;19.66;100.00;98962.28;4968714;28;20053;-75
2023/08/01 11:15:38;;;;;;;3.13;1.17;;;;;;;19.52;100.00;98967.25;4984108;28;20042;-75
2023/08/01 11:18:06;;;;;;;2.60;1.30;;;;;;;19.40;100.00;98954.28;4997087;28;20101;-74
2023/08/01 11:20:41;;;;;;;3.08;1.55;;;;;;;19.67;96.96;98977.41;5014692;28;20034;-74
2023/08/01 11:23:09;;;;;;;3.72;1.40;;;;;;;19.82;100.00;98973.91;4991407;28;20435;-73
2023/08/01 11:25:43;;;;;;;2.33;1.27;;;;;;;20.24;100.00;98981.00;4980006;28;20046;-75
2023/08/01 11:28:14;;;;;;;1.92;1.30;;;;;;;20.72;93.49;98976.63;4992193;28;20129;-75
2023/08/01 11:30:47;;;;;;;2.22;1.20;;;;;;;20.56;94.70;98970.25;4991037;28;20490;-75